createdAt,value
2023-04-13T00:00:37.034Z,98217.34
2023-04-13T00:03:04.528Z,98228.22
2023-04-13T00:05:34.414Z,98225.41
2023-04-13T00:08:03.461Z,98232.47
2023-04-13T00:10:31.688Z,98234.16
2023-04-13T00:12:58.414Z,98246.34
2023-04-13T00:15:25.786Z,98245.47
2023-04-13T00:17:54.036Z,98262.41
2023-04-13T00:20:20.876Z,98255.72
2023-04-13T00:22:48.122Z,98259.88
2023-04-13T00:25:16.065Z,98252.50
2023-04-13T00:27:44.152Z,98253.50
2023-04-13T00:30:15.966Z,98255.91
2023-04-13T00:32:44.375Z,98252.78
2023-04-13T00:35:12.869Z,98256.34
2023-04-13T00:37:39.839Z,98261.31
2023-04-13T00:40:08.333Z,98228.03
2023-04-13T00:42:36.257Z,98224.75
2023-04-13T00:45:03.278Z,98212.69
2023-04-13T00:47:34.018Z,98205.03
2023-04-13T00:50:02.052Z,98208.19
2023-04-13T00:52:29.175Z,98209.88
2023-04-13T00:54:57.971Z,98203.66
2023-04-13T00:57:25.488Z,98205.94
2023-04-13T00:59:52.874Z,98199.69
2023-04-13T01:02:25.768Z,98199.97
2023-04-13T01:04:54.948Z,98197.44
2023-04-13T01:07:51.779Z,98194.72
2023-04-13T01:10:28.772Z,98203.38
2023-04-13T01:13:10.648Z,98211.16
2023-04-13T01:15:40.080Z,98213.84
2023-04-13T01:18:10.028Z,98216.69
2023-04-13T01:20:40.443Z,98217.97
2023-04-13T01:23:51.265Z,98220.78
2023-04-13T01:26:17.981Z,98219.09
2023-04-13T01:28:46.895Z,98228.41
2023-04-13T01:31:13.938Z,98235.63
2023-04-13T01:33:41.709Z,98229.53
2023-04-13T01:36:11.002Z,98213.13
2023-04-13T01:38:38.049Z,98210.16
2023-04-13T01:41:05.001Z,98210.03
2023-04-13T01:43:32.463Z,98214.38
2023-04-13T01:46:04.834Z,98213.69
2023-04-13T01:48:48.263Z,98216.38
2023-04-13T01:51:25.493Z,98209.16
2023-04-13T01:54:04.691Z,98220.03
2023-04-13T01:56:31.744Z,98210.41
2023-04-13T01:59:00.128Z,98302.22
2023-04-13T02:01:26.976Z,98292.50
2023-04-13T02:03:53.951Z,98288.38
2023-04-13T02:06:20.932Z,98285.13
2023-04-13T02:08:49.095Z,98279.19
2023-04-13T02:11:17.426Z,98266.22
2023-04-13T02:13:44.700Z,98268.34
2023-04-13T02:16:11.588Z,98270.88
2023-04-13T02:18:38.754Z,98279.63
2023-04-13T02:21:09.619Z,98283.31
2023-04-13T02:23:37.621Z,98272.88
2023-04-13T02:26:07.094Z,98271.28
2023-04-13T02:28:34.528Z,98278.59
2023-04-13T02:31:02.898Z,98278.16
2023-04-13T02:33:32.673Z,98279.59
2023-04-13T02:36:02.216Z,98283.47
2023-04-13T02:38:29.181Z,98290.09
2023-04-13T02:40:57.516Z,98287.47
2023-04-13T02:43:24.332Z,98287.91
2023-04-13T02:45:51.260Z,98285.34
2023-04-13T02:48:18.158Z,98292.56
2023-04-13T02:50:44.953Z,98291.81
2023-04-13T02:53:12.284Z,98295.94
2023-04-13T02:55:39.310Z,98297.56
2023-04-13T02:58:09.277Z,98292.53
2023-04-13T03:00:36.170Z,98298.47
2023-04-13T03:03:06.975Z,98305.97
2023-04-13T03:05:33.969Z,98294.00
2023-04-13T03:08:00.874Z,98307.34
2023-04-13T03:10:27.734Z,98306.22
2023-04-13T03:12:54.960Z,98302.41
2023-04-13T03:15:21.781Z,98304.63
2023-04-13T03:17:48.627Z,98297.84
2023-04-13T03:20:16.935Z,98312.84
2023-04-13T03:22:45.334Z,98308.31
2023-04-13T03:25:12.729Z,98298.66
2023-04-13T03:27:39.617Z,98308.00
2023-04-13T03:30:07.750Z,98300.31
2023-04-13T03:32:34.597Z,98306.41
2023-04-13T03:35:01.343Z,98306.41
2023-04-13T03:37:30.409Z,98315.56
2023-04-13T03:39:58.617Z,98313.84
2023-04-13T03:42:25.381Z,98312.09
2023-04-13T03:44:52.200Z,98313.16
2023-04-13T03:47:18.929Z,98310.28
2023-04-13T03:49:45.710Z,98312.41
2023-04-13T03:52:12.638Z,98315.91
2023-04-13T03:54:40.320Z,98326.53
2023-04-13T03:57:07.266Z,98320.28
2023-04-13T03:59:34.364Z,98323.34
2023-04-13T04:02:03.008Z,98320.84
2023-04-13T04:04:29.935Z,98320.00
2023-04-13T04:06:58.165Z,98308.28
2023-04-13T04:09:25.554Z,98309.66
2023-04-13T04:11:52.421Z,98316.41
2023-04-13T04:14:20.440Z,98310.28
2023-04-13T04:16:47.263Z,98315.00
2023-04-13T04:19:14.210Z,98323.47
2023-04-13T04:21:44.683Z,98319.13
2023-04-13T04:24:12.557Z,98323.41
2023-04-13T04:26:40.266Z,98314.56
2023-04-13T04:29:08.795Z,98322.81
2023-04-13T04:31:37.479Z,98316.34
2023-04-13T04:34:04.519Z,98320.47
2023-04-13T04:36:31.320Z,98312.41
2023-04-13T04:39:02.606Z,98306.25
2023-04-13T04:41:31.256Z,98314.09
2023-04-13T04:44:03.440Z,98311.03
2023-04-13T04:46:30.200Z,98307.56
2023-04-13T04:49:00.799Z,98308.31
2023-04-13T04:51:28.293Z,98309.03
2023-04-13T04:53:55.076Z,98313.56
2023-04-13T04:56:21.985Z,98314.75
2023-04-13T04:58:48.645Z,98325.47
2023-04-13T05:01:15.412Z,98332.09
2023-04-13T05:03:42.198Z,98321.09
2023-04-13T05:06:09.543Z,98312.38
2023-04-13T05:08:36.310Z,98303.97
2023-04-13T05:11:06.501Z,98307.09
2023-04-13T05:13:33.202Z,98302.44
2023-04-13T05:15:59.939Z,98303.72
2023-04-13T05:18:27.395Z,98297.38
2023-04-13T05:20:54.136Z,98289.47
2023-04-13T05:23:21.027Z,98300.47
2023-04-13T05:25:52.739Z,98299.19
2023-04-13T05:28:21.808Z,98293.00
2023-04-13T05:30:48.717Z,98292.44
2023-04-13T05:33:17.024Z,98285.09
2023-04-13T05:35:44.086Z,98294.41
2023-04-13T05:38:10.767Z,98294.56
2023-04-13T05:40:37.509Z,98299.94
2023-04-13T05:43:04.261Z,98291.63
2023-04-13T05:45:31.042Z,98294.16
2023-04-13T05:47:57.753Z,98298.25
2023-04-13T05:50:24.616Z,98288.63
2023-04-13T05:52:51.489Z,98291.78
2023-04-13T05:55:20.012Z,98289.53
2023-04-13T05:57:46.741Z,98280.00
2023-04-13T06:00:14.350Z,98278.44
2023-04-13T06:02:41.974Z,98275.00
2023-04-13T06:05:09.490Z,98282.09
2023-04-13T06:07:37.029Z,98282.94
2023-04-13T06:10:04.339Z,98284.03
2023-04-13T06:12:31.079Z,98295.91
2023-04-13T06:14:57.782Z,98299.28
2023-04-13T06:17:27.560Z,98283.00
2023-04-13T06:19:54.567Z,98264.91
2023-04-13T06:22:21.394Z,98275.41
2023-04-13T06:24:50.620Z,98279.13
2023-04-13T06:27:18.504Z,98334.44
2023-04-13T06:29:45.838Z,98404.75
2023-04-13T06:32:13.162Z,98375.66
2023-04-13T06:34:39.852Z,98383.69
2023-04-13T06:37:06.712Z,98481.00
2023-04-13T06:39:37.582Z,98553.63
2023-04-13T06:42:05.077Z,98598.78
2023-04-13T06:44:31.886Z,98634.53
2023-04-13T06:46:58.601Z,98625.22
2023-04-13T06:49:25.645Z,98648.72
2023-04-13T06:51:52.421Z,98835.91
2023-04-13T06:54:19.213Z,98868.63
2023-04-13T06:56:46.035Z,98884.31
2023-04-13T06:59:12.897Z,98920.31
2023-04-13T07:01:39.680Z,98959.84
2023-04-13T07:04:07.843Z,99023.28
2023-04-13T07:06:34.951Z,99073.63
2023-04-13T07:09:01.621Z,99118.47
2023-04-13T07:11:28.385Z,99123.59
2023-04-13T07:13:55.062Z,99129.69
2023-04-13T07:16:21.942Z,99155.03
2023-04-13T07:18:48.623Z,99164.00
2023-04-13T07:21:15.426Z,99184.22
2023-04-13T07:23:42.726Z,99185.44
2023-04-13T07:26:15.046Z,99198.72
2023-04-13T07:28:42.392Z,99219.09
2023-04-13T07:31:09.161Z,99238.91
2023-04-13T07:33:35.995Z,99253.75
2023-04-13T07:36:02.628Z,99284.66
2023-04-13T07:38:29.325Z,99310.00
2023-04-13T07:40:56.018Z,99336.25
2023-04-13T07:43:26.303Z,99355.91
2023-04-13T07:45:53.028Z,99354.31
2023-04-13T07:48:19.658Z,99355.25
2023-04-13T07:50:46.915Z,99367.81
2023-04-13T07:53:13.622Z,99375.56
2023-04-13T07:55:40.729Z,99400.56
2023-04-13T07:58:07.543Z,99415.63
2023-04-13T08:00:34.250Z,99427.31
2023-04-13T08:03:01.141Z,99437.28
2023-04-13T08:05:28.097Z,99445.38
2023-04-13T08:07:54.983Z,99442.97
2023-04-13T08:10:21.653Z,99471.84
2023-04-13T08:12:48.522Z,99469.94
2023-04-13T08:15:15.256Z,99499.13
2023-04-13T08:17:42.232Z,99510.41
2023-04-13T08:20:09.411Z,99510.41
2023-04-13T08:22:36.874Z,99517.09
2023-04-13T08:25:05.389Z,99529.81
2023-04-13T08:27:32.330Z,99532.84
2023-04-13T08:30:02.033Z,99546.06
2023-04-13T08:32:29.158Z,99553.00
2023-04-13T08:34:56.228Z,99587.84
2023-04-13T08:37:24.652Z,99589.59
2023-04-13T08:39:56.628Z,99609.50
2023-04-13T08:42:25.130Z,99634.47
2023-04-13T08:45:00.662Z,99645.53
2023-04-13T08:47:28.358Z,99656.63
2023-04-13T08:49:59.934Z,99707.44
2023-04-13T08:52:28.387Z,99700.53
2023-04-13T08:54:57.519Z,99707.28
2023-04-13T08:57:24.417Z,99718.50
2023-04-13T08:59:52.587Z,99742.31
2023-04-13T09:02:26.499Z,99745.25
2023-04-13T09:04:54.819Z,99762.06
2023-04-13T09:07:32.768Z,99793.22
2023-04-13T09:10:01.050Z,99795.22
2023-04-13T09:12:29.573Z,99805.56
2023-04-13T09:14:56.253Z,99810.00
2023-04-13T09:17:28.057Z,99822.22
2023-04-13T09:20:23.187Z,99827.16
2023-04-13T09:22:54.007Z,99844.00
2023-04-13T09:25:22.537Z,99850.16
2023-04-13T09:27:51.650Z,99849.66
2023-04-13T09:30:23.096Z,99867.03
2023-04-13T09:33:11.153Z,99858.91
2023-04-13T09:35:38.199Z,99877.72
2023-04-13T09:38:06.177Z,99884.13
2023-04-13T09:40:47.959Z,99891.78
2023-04-13T09:43:14.746Z,99905.53
2023-04-13T09:45:45.968Z,99908.88
2023-04-13T09:48:18.662Z,99915.28
2023-04-13T09:50:45.415Z,99931.19
2023-04-13T09:53:12.270Z,99931.91
2023-04-13T09:55:39.654Z,99939.50
2023-04-13T09:58:17.534Z,99937.75
2023-04-13T10:00:46.577Z,99949.06
2023-04-13T10:03:15.471Z,99951.41
2023-04-13T10:05:55.232Z,99966.09
2023-04-13T10:08:36.709Z,99980.03
2023-04-13T10:11:04.698Z,99988.03
2023-04-13T10:13:37.843Z,99992.97
2023-04-13T10:16:36.606Z,99997.28
2023-04-13T10:19:15.587Z,100002.81
2023-04-13T10:21:47.734Z,100008.88
2023-04-13T10:24:15.795Z,100028.06
2023-04-13T10:26:45.899Z,100041.03
2023-04-13T10:29:14.987Z,100046.31
2023-04-13T10:31:47.138Z,100040.38
2023-04-13T10:34:25.622Z,100050.63
2023-04-13T10:36:55.348Z,100059.84
2023-04-13T10:39:27.676Z,100069.69
2023-04-13T10:42:01.484Z,100072.41
2023-04-13T10:44:40.359Z,100077.47
2023-04-13T10:47:08.318Z,100070.97
2023-04-13T10:49:36.532Z,100069.47
2023-04-13T10:52:03.624Z,100068.91
2023-04-13T10:54:31.057Z,100066.81
2023-04-13T10:57:02.728Z,100079.44
2023-04-13T10:59:55.474Z,100085.59
2023-04-13T11:02:32.945Z,100113.16
2023-04-13T11:05:01.227Z,100138.81
2023-04-13T11:07:28.795Z,100137.25
2023-04-13T11:12:28.766Z,100156.09
2023-04-13T11:14:55.480Z,100153.97
2023-04-13T11:17:22.511Z,100162.91
2023-04-13T11:19:51.349Z,100167.84
2023-04-13T11:22:19.812Z,100179.94
2023-04-13T11:24:47.642Z,100189.41
2023-04-13T11:27:24.506Z,100198.28
2023-04-13T11:29:58.724Z,100199.94
2023-04-13T11:32:26.741Z,100217.81
2023-04-13T11:34:53.774Z,100209.09
2023-04-13T11:37:20.608Z,100205.28
2023-04-13T11:39:47.354Z,100202.44
2023-04-13T11:42:14.116Z,100213.63
2023-04-13T11:44:42.747Z,100206.19
2023-04-13T11:47:13.199Z,100215.38
2023-04-13T11:49:47.191Z,100201.59
2023-04-13T11:52:14.416Z,100201.91
2023-04-13T11:54:42.901Z,100196.78
2023-04-13T11:57:10.749Z,100208.06
2023-04-13T11:59:38.737Z,100208.66
2023-04-13T12:02:12.313Z,100209.81
2023-04-13T12:04:49.207Z,100206.94
2023-04-13T12:07:16.659Z,100205.03
2023-04-13T12:12:50.608Z,100194.84
2023-04-13T12:15:19.621Z,100213.13
2023-04-13T12:18:02.617Z,100197.91
2023-04-13T12:20:40.543Z,100215.50
2023-04-13T12:23:23.169Z,100220.84
2023-04-13T12:26:23.880Z,100203.72
2023-04-13T12:28:54.617Z,100199.00
2023-04-13T12:31:21.417Z,100186.00
2023-04-13T12:33:48.056Z,100199.91
2023-04-13T12:36:14.684Z,100196.44
2023-04-13T12:38:41.631Z,100208.13
2023-04-13T12:41:10.197Z,100222.84
2023-04-13T12:43:37.031Z,100243.75
2023-04-13T12:46:03.873Z,100226.53
2023-04-13T12:48:30.931Z,100225.84
2023-04-13T12:50:57.999Z,100238.28
2023-04-13T12:53:24.841Z,100235.84
2023-04-13T12:55:51.532Z,100256.28
2023-04-13T12:58:18.297Z,100270.50
2023-04-13T13:00:45.187Z,100272.50
2023-04-13T13:03:14.513Z,100278.94
2023-04-13T13:05:41.951Z,100279.03
2023-04-13T13:08:09.232Z,100287.13
2023-04-13T13:10:39.256Z,100311.97
2023-04-13T13:13:06.380Z,100296.44
2023-04-13T13:15:33.601Z,100323.50
2023-04-13T13:18:04.423Z,100324.88
2023-04-13T13:20:31.288Z,100346.94
2023-04-13T13:22:58.273Z,100342.88
2023-04-13T13:25:25.133Z,100344.03
2023-04-13T13:28:10.273Z,100336.47
2023-04-13T13:30:38.848Z,100338.31
2023-04-13T13:33:05.715Z,100353.28
2023-04-13T13:35:33.481Z,100352.03
2023-04-13T13:38:01.634Z,100334.16
2023-04-13T13:40:28.606Z,100341.06
2023-04-13T13:42:55.619Z,100328.63
2023-04-13T13:45:22.651Z,100349.84
2023-04-13T13:47:54.021Z,100367.81
2023-04-13T13:50:21.745Z,100381.41
2023-04-13T13:53:02.585Z,100389.50
2023-04-13T13:55:31.731Z,100389.28
2023-04-13T13:57:58.781Z,100401.94
2023-04-13T14:00:26.021Z,100393.75
2023-04-13T14:02:53.319Z,100402.56
2023-04-13T14:05:22.815Z,100418.31
2023-04-13T14:07:49.689Z,100415.91
2023-04-13T14:10:16.771Z,100400.00
2023-04-13T14:12:47.391Z,100387.13
2023-04-13T14:15:15.752Z,100394.19
2023-04-13T14:17:42.668Z,100378.56
2023-04-13T14:20:12.778Z,100393.09
2023-04-13T14:22:40.692Z,100432.47
2023-04-13T14:25:11.587Z,100496.16
2023-04-13T14:27:38.749Z,100550.41
2023-04-13T14:30:06.193Z,100561.34
2023-04-13T14:32:33.156Z,100569.13
2023-04-13T14:35:00.516Z,100571.44
2023-04-13T14:37:28.184Z,100567.28
2023-04-13T14:39:55.465Z,100552.94
2023-04-13T14:42:24.391Z,100538.38
2023-04-13T14:44:53.888Z,100542.09
2023-04-13T14:47:20.656Z,100530.81
2023-04-13T14:49:47.801Z,100529.69
2023-04-13T14:52:15.172Z,100517.16
2023-04-13T14:54:42.284Z,100514.28
2023-04-13T14:57:10.591Z,100519.47
2023-04-13T14:59:37.479Z,100518.44
2023-04-13T15:02:05.673Z,100523.38
2023-04-13T15:04:32.701Z,100521.66
2023-04-13T15:07:00.730Z,100513.66
2023-04-13T15:09:27.425Z,100513.56
2023-04-13T15:11:54.182Z,100514.44
2023-04-13T15:14:21.086Z,100517.72
2023-04-13T15:16:47.933Z,100511.19
2023-04-13T15:19:14.650Z,100529.38
2023-04-13T15:21:41.725Z,100529.56
2023-04-13T15:24:09.790Z,100536.75
2023-04-13T15:26:41.465Z,100537.88
2023-04-13T15:29:08.994Z,100544.31
2023-04-13T15:31:37.691Z,100547.59
2023-04-13T15:34:11.166Z,100542.63
2023-04-13T15:36:38.363Z,100548.25
2023-04-13T15:39:05.241Z,100546.22
2023-04-13T15:41:32.108Z,100548.22
2023-04-13T15:44:03.324Z,100548.22
2023-04-13T15:46:30.391Z,100556.84
2023-04-13T15:48:57.366Z,100555.88
2023-04-13T15:51:24.247Z,100567.97
2023-04-13T15:53:50.991Z,100558.50
2023-04-13T15:56:18.727Z,100566.50
2023-04-13T15:58:45.420Z,100571.00
2023-04-13T16:01:13.140Z,100579.31
2023-04-13T16:03:40.338Z,100588.25
2023-04-13T16:06:07.886Z,100603.03
2023-04-13T16:08:34.614Z,100598.47
2023-04-13T16:11:01.528Z,100623.34
2023-04-13T16:13:45.081Z,100627.50
2023-04-13T16:16:15.229Z,100630.41
2023-04-13T16:18:42.097Z,100638.22
2023-04-13T16:21:10.918Z,100644.09
2023-04-13T16:23:38.174Z,100642.13
2023-04-13T16:26:05.244Z,100652.66
2023-04-13T16:28:31.977Z,100645.16
2023-04-13T16:31:02.033Z,100663.06
2023-04-13T16:33:29.810Z,100660.53
2023-04-13T16:35:56.563Z,100671.28
2023-04-13T16:38:23.218Z,100678.97
2023-04-13T16:40:49.897Z,100691.97
2023-04-13T16:43:16.695Z,100702.59
2023-04-13T16:45:43.900Z,100713.31
2023-04-13T16:48:10.723Z,100714.72
2023-04-13T16:50:37.508Z,100734.34
2023-04-13T16:53:04.182Z,100729.56
2023-04-13T16:55:31.411Z,100740.41
2023-04-13T16:57:58.313Z,100745.06
2023-04-13T17:00:26.255Z,100751.75
2023-04-13T17:02:53.023Z,100748.91
2023-04-13T17:05:19.752Z,100756.81
2023-04-13T17:07:48.150Z,100759.72
2023-04-13T17:10:15.019Z,100758.75
2023-04-13T17:12:41.819Z,100759.38
2023-04-13T17:15:09.937Z,100760.00
2023-04-13T17:17:38.234Z,100758.28
2023-04-13T17:20:06.425Z,100758.63
2023-04-13T17:22:33.313Z,100749.69
2023-04-13T17:25:03.067Z,100756.44
2023-04-13T17:27:30.336Z,100753.31
2023-04-13T17:30:00.313Z,100757.03
2023-04-13T17:32:27.398Z,100755.28
2023-04-13T17:34:54.815Z,100758.06
2023-04-13T17:37:22.373Z,100757.44
2023-04-13T17:39:51.229Z,100768.69
2023-04-13T17:42:18.683Z,100779.31
2023-04-13T17:44:45.362Z,100781.00
2023-04-13T17:47:12.040Z,100789.19
2023-04-13T17:49:38.935Z,100790.78
2023-04-13T17:52:05.968Z,100792.25
2023-04-13T17:54:33.304Z,100798.41
2023-04-13T17:57:01.283Z,100810.06
2023-04-13T17:59:28.137Z,100815.94
2023-04-13T18:01:56.124Z,100810.94
2023-04-13T18:04:22.983Z,100822.00
2023-04-13T18:06:49.796Z,100821.41
2023-04-13T18:09:16.505Z,100820.66
2023-04-13T18:11:43.255Z,100830.19
2023-04-13T18:14:12.134Z,100836.97
2023-04-13T18:16:39.333Z,100841.81
2023-04-13T18:19:06.414Z,100851.66
2023-04-13T18:21:33.572Z,100854.75
2023-04-13T18:24:01.556Z,100862.56
2023-04-13T18:26:28.789Z,100858.47
2023-04-13T18:28:55.440Z,100873.88
2023-04-13T18:31:22.279Z,100864.66
2023-04-13T18:33:49.313Z,100867.09
2023-04-13T18:36:17.771Z,100859.59
2023-04-13T18:38:46.208Z,100859.75
2023-04-13T18:41:13.175Z,100863.50
2023-04-13T18:43:39.991Z,100872.31
2023-04-13T18:46:07.771Z,100875.59
2023-04-13T18:48:35.013Z,100868.69
2023-04-13T18:51:03.422Z,100864.19
2023-04-13T18:53:31.083Z,100860.78
2023-04-13T18:55:58.446Z,100867.03
2023-04-13T18:58:25.525Z,100870.78
2023-04-13T19:00:52.247Z,100870.91
2023-04-13T19:03:19.274Z,100863.44
2023-04-13T19:05:46.377Z,100864.75
2023-04-13T19:08:13.535Z,100868.09
2023-04-13T19:10:41.593Z,100866.03
2023-04-13T19:13:08.330Z,100867.25
2023-04-13T19:15:35.811Z,100870.97
2023-04-13T19:18:04.222Z,100869.63
2023-04-13T19:20:31.561Z,100868.16
2023-04-13T19:22:58.440Z,100872.31
2023-04-13T19:25:25.423Z,100872.56
2023-04-13T19:27:52.418Z,100857.94
2023-04-13T19:30:19.759Z,100862.38
2023-04-13T19:32:48.726Z,100863.78
2023-04-13T19:35:16.016Z,100863.16
2023-04-13T19:37:42.925Z,100868.47
2023-04-13T19:40:10.351Z,100857.53
2023-04-13T19:42:37.465Z,100859.28
2023-04-13T19:45:04.622Z,100865.66
2023-04-13T19:47:31.442Z,100877.69
2023-04-13T19:49:58.237Z,100874.28
2023-04-13T19:52:25.332Z,100868.66
2023-04-13T19:54:52.195Z,100862.47
2023-04-13T19:57:18.953Z,100864.31
2023-04-13T19:59:45.627Z,100862.78
2023-04-13T20:02:12.536Z,100853.88
2023-04-13T20:04:40.365Z,100857.03
2023-04-13T20:07:07.814Z,100857.78
2023-04-13T20:09:34.650Z,100856.59
2023-04-13T20:12:01.606Z,100850.44
2023-04-13T20:14:28.445Z,100858.88
2023-04-13T20:16:55.158Z,100850.97
2023-04-13T20:19:23.733Z,100848.31
2023-04-13T20:21:51.533Z,100843.03
2023-04-13T20:24:18.736Z,100856.81
2023-04-13T20:26:46.939Z,100846.28
2023-04-13T20:29:16.774Z,100844.78
2023-04-13T20:31:43.469Z,100844.53
2023-04-13T20:34:13.485Z,100835.53
2023-04-13T20:36:40.706Z,100821.75
2023-04-13T20:39:09.561Z,100828.00
2023-04-13T20:41:36.771Z,100833.97
2023-04-13T20:44:03.659Z,100828.56
2023-04-13T20:46:37.768Z,100835.78
2023-04-13T20:49:05.137Z,100828.66
2023-04-13T20:51:33.306Z,100819.38
2023-04-13T20:54:02.917Z,100827.56
2023-04-13T20:56:30.081Z,100820.59
2023-04-13T20:58:58.111Z,100819.94
2023-04-13T21:01:25.448Z,100815.34
2023-04-13T21:03:52.793Z,100794.47
2023-04-13T21:06:19.941Z,100783.84
2023-04-13T21:08:46.674Z,100772.56
2023-04-13T21:11:13.513Z,100770.81
2023-04-13T21:13:40.510Z,100772.63
2023-04-13T21:16:09.008Z,100780.13
2023-04-13T21:18:36.741Z,100786.00
2023-04-13T21:21:07.185Z,100789.09
2023-04-13T21:23:36.483Z,100782.94
2023-04-13T21:26:05.521Z,100775.66
2023-04-13T21:28:33.557Z,100772.66
2023-04-13T21:31:00.336Z,100785.25
2023-04-13T21:33:27.440Z,100782.88
2023-04-13T21:35:54.119Z,100780.53
2023-04-13T21:38:20.921Z,100776.84
2023-04-13T21:40:47.644Z,100771.53
2023-04-13T21:43:14.628Z,100773.28
2023-04-13T21:45:41.330Z,100771.53
2023-04-13T21:48:08.082Z,100773.56
2023-04-13T21:50:34.897Z,100760.13
2023-04-13T21:53:01.686Z,100754.50
2023-04-13T21:55:28.475Z,100756.22
2023-04-13T21:57:55.196Z,100754.41
2023-04-13T22:00:22.372Z,100753.75
2023-04-13T22:02:49.612Z,100753.19
2023-04-13T22:05:16.974Z,100733.44
2023-04-13T22:07:44.446Z,100733.78
2023-04-13T22:10:11.599Z,100740.25
2023-04-13T22:12:38.458Z,100738.34
2023-04-13T22:15:06.301Z,100728.06
2023-04-13T22:17:33.396Z,100725.78
2023-04-13T22:20:00.646Z,100722.44
2023-04-13T22:22:27.453Z,100727.50
2023-04-13T22:24:54.306Z,100720.50
2023-04-13T22:27:21.938Z,100714.38
2023-04-13T22:29:48.688Z,100711.03
2023-04-13T22:32:15.391Z,100710.69
2023-04-13T22:34:42.126Z,100710.53
2023-04-13T22:37:10.444Z,100706.13
2023-04-13T22:39:37.433Z,100694.56
2023-04-13T22:42:04.454Z,100692.09
2023-04-13T22:44:34.865Z,100699.44
2023-04-13T22:47:03.034Z,100685.63
2023-04-13T22:49:30.015Z,100687.50
2023-04-13T22:51:57.147Z,100691.66
2023-04-13T22:54:24.366Z,100692.22
2023-04-13T22:56:51.439Z,100693.16
2023-04-13T22:59:18.651Z,100694.91
2023-04-13T23:01:45.532Z,100694.75
2023-04-13T23:04:15.540Z,100703.13
2023-04-13T23:06:42.841Z,100672.09
2023-04-13T23:09:09.637Z,100668.19
2023-04-13T23:11:36.284Z,100663.53
2023-04-13T23:14:03.001Z,100656.56
2023-04-13T23:16:30.097Z,100668.34
2023-04-13T23:18:56.951Z,100671.16
2023-04-13T23:21:23.972Z,100672.97
2023-04-13T23:23:50.853Z,100680.22
2023-04-13T23:26:17.580Z,100672.91
2023-04-13T23:28:45.866Z,100682.91
2023-04-13T23:31:13.024Z,100683.19
2023-04-13T23:33:40.052Z,100682.84
2023-04-13T23:36:07.296Z,100702.78
2023-04-13T23:38:34.188Z,100690.44
2023-04-13T23:41:01.106Z,100692.19
2023-04-13T23:43:28.363Z,100688.56
2023-04-13T23:45:55.210Z,100683.81
2023-04-13T23:48:23.009Z,100688.75
2023-04-13T23:50:49.946Z,100683.13
2023-04-13T23:53:16.697Z,100693.06
2023-04-13T23:55:43.446Z,100683.16
2023-04-13T23:58:11.442Z,100682.06
